Date,TemperatureHighF,TemperatureAvgF,TemperatureLowF,DewpointHighF,DewpointAvgF,DewpointLowF,HumidityHigh,HumidityAvg,HumidityLow,PressureMaxIn,PressureMinIn,WindSpeedMaxMPH,WindSpeedAvgMPH,GustSpeedMaxMPH,PrecipitationSumIn
2013-1-1,66.0,56.0,48.1,65.0,54.5,45.0,96,94,88,30.17,29.88,7,2,14,4.35
2013-1-2,48.0,45.2,42.9,45.0,41.9,40.0,94,88,81,30.28,30.12,7,2,12,0.05
2013-1-3,54.7,46.1,41.7,40.0,37.7,34.0,90,74,50,30.40,30.26,7,2,13,0.00
2013-1-4,48.9,45.7,42.0,38.0,35.8,34.0,76,69,57,30.50,30.32,8,2,13,0.00
2013-1-5,47.7,44.8,43.1,44.0,41.7,37.0,96,89,71,30.36,30.23,8,1,9,1.04
2013-1-6,58.8,49.4,44.7,46.0,43.7,41.0,96,81,60,30.31,30.21,8,2,12,0.01
2013-1-7,58.2,49.1,40.1,46.0,42.4,38.0,92,78,58,30.32,30.12,10,3,14,0.00
2013-1-8,63.0,57.1,50.1,62.0,54.7,45.0,96,91,78,30.12,29.97,11,4,19,0.37
2013-1-9,66.5,63.5,60.9,65.0,62.4,60.0,97,96,94,30.11,29.92,12,3,19,3.34
2013-1-10,64.9,61.1,52.2,64.0,60.0,51.0,97,96,93,30.10,29.93,8,1,13,1.29
2013-1-11,73.8,60.1,46.1,70.0,55.5,45.0,97,87,50,30.06,29.92,6,1,13,0.02
2013-1-12,75.6,71.7,69.5,71.0,69.6,68.0,96,93,83,29.96,29.81,16,6,21,0.00
2013-1-13,71.7,55.9,46.5,69.0,53.8,44.0,95,92,87,30.12,29.75,18,4,23,0.06
2013-1-14,46.7,42.3,38.1,45.0,39.8,37.0,95,91,84,30.18,30.04,12,4,16,0.09
2013-1-15,41.5,38.2,35.3,39.0,36.7,34.0,95,94,88,30.11,30.01,8,2,11,0.56
2013-1-16,45.1,37.5,32.9,39.0,35.1,32.0,96,91,78,30.25,30.08,10,2,15,0.09
2013-1-17,59.2,44.5,32.1,37.0,33.1,29.0,92,67,40,30.46,30.23,8,2,14,0.00
2013-1-18,61.5,43.8,32.2,39.0,34.6,27.0,96,75,29,30.54,30.38,8,1,11,0.00
2013-1-19,66.4,46.2,31.6,49.0,40.9,30.0,97,84,49,30.38,30.21,3,0,6,0.00
2013-1-20,69.8,50.9,36.3,54.0,44.2,35.0,97,81,43,30.27,30.12,5,0,7,0.01
2013-1-21,69.9,52.6,39.2,53.0,44.4,-99.9,97,79,47,30.23,30.15,6,-10,7,0.00
2013-1-22,68.8,51.3,41.6,50.0,44.3,38.0,95,79,47,30.36,30.22,9,1,10,0.00
2013-1-23,71.9,56.4,43.0,60.0,51.5,42.0,97,85,60,30.38,30.25,8,2,13,0.01
2013-1-24,71.3,60.1,47.5,64.0,56.9,47.0,97,89,75,30.33,30.19,8,2,14,0.00
2013-1-25,75.5,63.9,54.3,64.0,59.5,53.0,96,87,62,30.22,30.11,10,2,14,0.01
2013-1-26,76.9,63.0,54.4,67.0,58.2,53.0,97,86,59,30.21,30.13,9,1,12,0.01
2013-1-27,74.1,65.0,56.2,64.0,60.9,55.0,96,87,69,30.20,30.11,14,3,18,0.01
2013-1-28,74.2,68.8,64.1,68.0,65.9,62.0,95,90,81,30.18,30.04,10,4,17,0.00
2013-1-29,77.6,71.7,68.1,71.0,68.8,66.0,95,90,78,30.04,29.67,20,9,26,0.00
2013-1-30,71.1,55.1,37.3,69.0,38.2,-99.9,93,57,34,30.22,29.68,17,-5,30,0.06
2013-1-31,63.1,47.0,30.9,41.0,34.0,25.0,96,67,25,30.33,30.21,12,1,15,0.00
2013-2-1,69.6,51.8,43.3,49.0,40.8,-99.9,94,73,36,30.40,30.28,6,-20,9,0.00
2013-2-2,72.0,56.2,43.1,57.0,50.8,42.0,96,83,57,30.29,30.18,8,1,10,0.00
2013-2-3,71.9,57.0,44.9,55.0,43.6,31.0,96,68,23,30.31,30.09,6,1,10,0.01
2013-2-4,69.0,58.3,45.0,61.0,54.8,43.0,95,88,70,30.09,29.89,6,1,11,0.05
2013-2-5,74.4,64.3,58.6,67.0,61.5,57.0,96,91,73,30.01,29.89,5,1,7,0.98
2013-2-6,65.7,60.4,56.4,63.0,59.1,55.0,96,95,89,30.09,29.89,9,2,15,1.14
2013-2-7,69.6,62.0,58.0,63.0,59.3,57.0,96,91,78,29.98,29.86,6,1,10,0.00
2013-2-8,67.3,60.0,51.7,60.0,55.7,49.0,97,86,68,30.16,29.98,8,2,13,0.00
2013-2-9,67.1,58.3,49.1,63.0,55.1,47.0,94,89,79,30.17,29.94,9,2,14,0.00
2013-2-10,76.1,68.1,62.7,71.0,65.5,60.0,96,91,84,29.96,29.82,18,5,27,0.11
2013-2-11,64.0,55.9,52.1,62.0,54.3,51.0,95,94,88,30.12,29.95,11,4,19,1.52
2013-2-12,71.2,59.0,54.4,70.0,57.2,52.0,97,93,85,30.00,29.73,11,4,19,0.01
2013-2-13,60.9,52.9,45.0,52.0,44.4,40.0,89,74,48,30.08,29.91,9,3,18,0.05
2013-2-14,63.5,48.3,35.4,44.0,40.2,34.0,96,77,43,30.17,30.05,6,1,8,0.00
2013-2-15,67.9,52.1,36.9,50.0,41.4,36.0,97,71,37,30.27,30.09,8,2,13,0.02
2013-2-16,57.5,47.0,36.6,41.0,28.6,23.0,89,52,28,30.40,30.25,14,3,22,0.00
2013-2-17,66.9,51.4,34.3,49.0,42.8,32.0,94,75,49,30.28,30.13,14,2,16,0.00
2013-2-18,70.4,63.7,54.0,64.0,58.4,49.0,94,83,70,30.13,29.89,23,6,25,0.84
2013-2-19,66.2,56.5,48.5,57.0,41.6,34.0,94,60,31,30.25,30.00,12,4,14,0.07
2013-2-20,61.5,53.2,45.9,47.0,39.6,30.0,76,61,46,30.20,29.93,14,5,18,0.00
2013-2-21,71.5,63.4,54.6,69.0,60.8,47.0,95,91,76,29.92,29.69,14,4,22,0.45
2013-2-22,64.6,60.9,56.8,62.0,53.7,48.0,96,78,57,29.96,29.84,9,3,14,0.00
2013-2-23,69.6,57.3,49.8,51.0,49.0,46.0,89,75,51,29.98,29.87,7,2,10,0.00
2013-2-24,69.0,57.4,45.2,59.0,50.7,43.0,94,79,52,29.97,29.69,10,3,13,0.05
2013-2-25,75.7,64.3,49.6,71.0,55.8,33.0,96,78,32,29.68,29.43,15,4,24,0.22
2013-2-26,63.7,52.3,43.9,43.0,37.7,34.0,82,59,40,29.93,29.67,17,4,23,0.00
2013-2-27,70.8,56.3,43.6,55.0,43.2,32.0,91,64,30,30.10,29.92,14,2,18,0.00
2013-2-28,53.6,47.4,41.3,39.0,32.7,30.0,79,58,42,30.24,30.10,16,2,16,0.00
2013-3-1,61.6,50.1,40.9,37.0,32.2,27.0,75,53,28,30.23,30.11,10,3,23,0.00
2013-3-2,51.9,43.4,33.1,34.0,29.9,26.0,86,61,39,30.30,30.19,9,2,22,0.00
2013-3-3,61.7,44.8,28.8,42.0,32.7,26.0,95,68,28,30.29,30.07,9,1,13,0.00
2013-3-4,72.2,61.4,44.8,61.0,55.7,42.0,95,82,67,30.07,29.85,14,5,26,0.00
2013-3-5,71.0,63.6,51.3,63.0,46.9,29.0,93,60,23,30.27,29.85,13,3,23,0.00
2013-3-6,68.7,51.6,39.2,42.0,30.1,22.0,89,49,18,30.39,30.23,9,1,12,0.00
2013-3-7,66.4,51.4,40.3,42.0,38.0,34.0,91,65,33,30.34,30.21,10,2,11,0.00
2013-3-8,71.7,56.6,40.9,56.0,48.2,39.0,95,76,50,30.27,30.10,7,2,12,0.00
2013-3-9,71.5,62.3,54.6,63.0,58.9,51.0,95,89,74,30.09,29.84,10,3,21,0.00
2013-3-10,73.0,62.0,53.6,66.0,59.4,52.0,96,91,79,29.95,29.80,12,3,23,1.07
2013-3-11,60.7,51.2,40.4,46.0,36.2,31.0,86,58,35,30.09,29.95,11,3,22,0.00
2013-3-12,70.6,54.4,35.9,47.0,38.3,34.0,93,61,29,30.25,30.07,6,1,9,0.00
2013-3-13,72.7,55.6,39.9,44.0,37.3,29.0,95,58,21,30.45,30.25,10,2,17,0.00
2013-3-14,70.8,53.9,38.4,46.0,40.5,33.0,93,66,25,30.45,30.30,7,1,11,0.00
2013-3-15,73.5,58.5,43.2,60.0,52.9,42.0,96,83,61,30.30,30.09,15,2,18,0.00
2013-3-16,76.4,66.1,54.6,62.0,58.9,53.0,96,79,57,30.08,29.91,13,3,18,0.01
2013-3-17,76.1,67.6,59.7,67.0,64.1,58.0,96,88,73,29.92,29.75,15,4,20,0.00
2013-3-18,83.3,71.9,66.8,71.0,67.3,65.0,96,86,63,29.89,29.74,9,2,13,0.00
2013-3-19,77.3,67.3,53.8,66.0,51.9,41.0,91,59,45,30.01,29.89,11,4,17,0.00
2013-3-20,74.2,62.6,51.4,52.0,42.9,34.0,91,53,23,30.19,29.96,13,3,17,0.13
2013-3-21,69.3,59.3,49.5,56.0,45.9,39.0,82,63,36,30.05,29.77,11,3,18,0.00
2013-3-22,80.7,69.9,59.6,71.0,66.3,57.0,95,88,72,29.79,29.68,8,3,16,0.00
2013-3-23,74.0,69.5,67.6,70.0,68.1,67.0,96,95,87,29.76,29.56,7,1,9,0.06
2013-3-24,68.5,60.1,47.2,67.0,45.9,31.0,95,63,33,30.09,29.61,21,4,26,0.00
2013-3-25,61.3,48.0,38.4,34.0,27.3,-99.9,74,50,23,30.32,30.10,9,-10,17,0.00
2013-3-26,61.5,47.8,32.8,34.0,26.1,23.0,79,46,26,30.47,30.32,8,2,18,0.00
2013-3-27,66.0,49.3,34.6,45.0,38.3,31.0,91,69,38,30.43,30.25,7,2,11,0.00
2013-3-28,72.9,57.1,41.3,55.0,49.2,39.0,93,77,46,30.34,30.21,8,2,14,0.00
2013-3-29,77.3,63.5,51.9,61.0,56.8,51.0,96,81,56,30.28,30.16,7,1,12,0.00
2013-3-30,76.5,65.7,57.8,65.0,60.2,56.0,96,84,57,30.18,30.00,13,2,18,0.00
2013-3-31,77.4,65.1,58.2,70.0,62.7,57.0,96,92,76,30.00,29.85,10,2,26,0.75
2013-4-1,79.6,65.7,53.7,64.0,58.5,53.0,97,81,50,30.09,29.95,8,1,11,0.01
2013-4-2,75.6,66.6,57.0,65.0,60.2,56.0,96,81,59,30.06,29.84,9,2,16,0.00
2013-4-3,67.6,55.6,49.0,63.0,53.5,47.0,96,92,82,30.05,29.75,15,2,21,3.21
2013-4-4,53.3,49.3,47.0,48.0,46.0,44.0,95,88,81,30.14,30.00,11,2,17,0.00
2013-4-5,75.4,56.0,45.9,53.0,47.2,44.0,94,75,39,30.22,30.07,7,1,14,0.00
2013-4-6,71.3,60.8,47.8,58.0,54.5,47.0,96,81,61,30.13,30.00,11,3,18,0.00
2013-4-7,77.6,68.7,58.7,64.0,60.9,57.0,95,78,56,30.03,29.91,10,4,16,0.00
2013-4-8,79.1,71.1,65.6,67.0,65.1,63.0,94,82,61,29.93,29.85,15,5,21,0.00
2013-4-9,78.3,73.2,66.3,72.0,69.8,65.0,96,89,81,29.91,29.79,19,7,26,0.00
2013-4-10,80.5,74.9,72.4,73.0,71.2,70.0,92,88,78,29.85,29.74,15,8,30,0.00
2013-4-11,73.0,55.2,47.7,71.0,50.9,46.0,95,86,60,29.88,29.69,8,2,21,1.26
2013-4-12,80.3,61.5,44.3,55.0,48.9,43.0,97,69,30,30.02,29.86,8,1,9,0.01
2013-4-13,79.8,65.4,50.6,59.0,53.3,48.0,92,68,39,30.01,29.80,10,2,14,0.00
2013-4-14,80.3,67.1,59.1,66.0,61.8,57.0,96,84,58,29.82,29.70,5,1,9,0.08
2013-4-15,84.6,70.1,60.7,74.0,65.7,60.0,97,87,62,29.87,29.76,12,2,13,0.01
2013-4-16,75.8,75.5,74.9,73.0,72.9,72.0,92,91,90,30.00,29.96,8,4,15,0.01
2013-4-17,83.8,76.7,73.1,75.0,72.5,71.0,93,87,73,29.99,29.84,14,6,24,0.00
2013-4-18,81.5,71.0,52.6,74.0,67.1,49.0,94,87,76,29.99,29.70,20,7,27,0.09
2013-4-19,66.9,54.5,45.8,49.0,40.1,35.0,87,61,34,30.21,29.99,10,2,17,0.00
2013-4-20,72.3,56.2,39.7,50.0,42.0,37.0,92,64,32,30.26,30.09,11,2,13,0.00
2013-4-21,75.8,60.6,45.4,53.0,49.3,44.0,96,70,42,30.20,30.07,10,2,12,0.00
2013-4-22,79.8,64.1,48.6,62.0,54.5,47.0,96,74,40,30.12,29.97,6,1,11,0.00
2013-4-23,81.7,71.0,57.3,70.0,66.1,56.0,96,85,62,30.02,29.91,10,3,16,0.00
2013-4-24,72.5,63.3,52.3,70.0,57.3,51.0,94,81,60,30.20,29.91,15,3,31,0.22
2013-4-25,72.5,61.8,52.0,54.0,48.8,45.0,85,65,39,30.31,30.18,13,4,15,0.00
2013-4-26,78.3,68.7,59.6,69.0,61.7,53.0,94,79,64,30.23,30.12,7,2,13,0.00
2013-4-27,79.9,72.8,67.6,70.0,68.7,66.0,96,87,70,30.13,29.96,8,2,23,0.10
2013-4-28,80.2,70.8,62.5,69.0,65.4,61.0,95,84,63,30.02,29.90,7,1,14,0.04
2013-4-29,83.8,69.9,60.1,70.0,65.0,59.0,97,85,59,29.96,29.84,7,1,12,0.23
2013-4-30,82.1,71.0,65.7,72.0,67.6,64.0,96,89,66,29.86,29.77,5,1,11,0.02
2013-5-1,83.6,72.6,65.6,72.0,67.1,64.0,96,84,61,29.88,29.80,7,1,11,0.03
2013-5-2,74.8,67.1,56.3,69.0,63.3,53.0,96,88,72,30.05,29.86,14,2,22,0.08
2013-5-3,66.3,54.5,44.6,52.0,43.8,37.0,89,70,37,30.10,29.99,14,4,25,0.00
2013-5-4,75.6,60.0,38.7,58.0,47.1,37.0,96,67,34,30.07,29.85,8,1,14,0.00
2013-5-5,69.2,59.0,48.0,58.0,45.1,41.0,88,62,42,30.05,29.91,12,2,16,0.00
2013-5-6,78.2,61.4,43.3,56.0,50.2,42.0,95,70,43,30.08,29.94,8,1,12,0.00
2013-5-7,84.7,70.0,54.9,63.0,58.4,53.0,94,70,40,30.06,29.97,7,1,14,0.00
2013-5-8,81.2,69.5,57.3,67.0,62.2,56.0,96,79,54,30.09,29.99,11,2,13,0.00
2013-5-9,78.8,71.7,63.1,71.0,68.1,62.0,96,89,75,30.06,29.89,12,3,23,0.00
2013-5-10,77.1,69.2,64.0,71.0,65.3,63.0,96,88,68,30.06,29.84,16,3,22,4.76
2013-5-11,84.1,72.3,64.8,71.0,67.1,64.0,96,84,62,30.09,29.84,17,1,19,1.35
2013-5-12,83.2,71.6,61.7,65.0,60.5,57.0,95,70,44,30.18,30.06,9,2,14,0.00
2013-5-13,82.3,66.7,51.2,62.0,53.3,42.0,95,67,24,30.30,30.16,8,1,10,0.00
2013-5-14,84.9,69.5,53.8,66.0,57.4,49.0,96,71,29,30.25,30.13,9,2,13,0.00
2013-5-15,78.9,69.5,60.8,68.0,64.7,60.0,96,85,65,30.16,29.98,9,3,14,0.00
2013-5-16,81.5,73.8,68.0,70.0,68.2,66.0,94,83,66,29.98,29.87,11,3,15,0.00
2013-5-17,84.7,77.1,71.0,75.0,72.1,69.0,94,85,68,29.98,29.88,10,3,16,0.00
2013-5-18,87.5,78.8,73.3,74.0,72.3,70.0,94,81,60,30.00,29.93,11,4,13,0.00
2013-5-19,86.3,79.3,74.3,76.0,73.6,72.0,92,83,65,29.95,29.87,15,6,19,0.00
2013-5-20,86.7,80.1,76.3,77.0,74.7,73.0,89,84,69,29.94,29.83,13,6,20,0.00
2013-5-21,86.4,79.6,75.8,76.0,74.6,73.0,93,85,69,29.90,29.76,14,5,19,0.00
2013-5-22,89.7,77.8,67.7,76.0,72.3,66.0,95,84,60,29.93,29.79,8,2,12,0.05
2013-5-23,90.1,79.7,72.3,78.0,74.2,71.0,97,84,61,30.05,29.91,8,2,13,0.02
2013-5-24,90.2,77.8,71.0,77.0,72.9,67.0,96,85,59,30.14,30.01,10,1,14,1.10
2013-5-25,87.3,76.9,69.0,77.0,70.9,66.0,94,82,65,30.17,30.08,8,2,11,0.02
2013-5-26,89.4,78.8,70.8,74.0,71.0,67.0,95,78,50,30.12,30.04,9,2,13,0.00
2013-5-27,87.6,78.0,68.6,73.0,70.7,67.0,96,80,57,30.07,29.96,9,2,16,0.00
2013-5-28,86.8,77.4,71.2,74.0,71.0,65.0,94,81,62,30.01,29.92,14,3,17,0.00
2013-5-29,86.7,78.8,70.0,74.0,72.2,69.0,95,81,62,29.95,29.85,14,3,17,0.00
2013-5-30,88.0,80.3,73.9,76.0,74.2,72.0,94,82,64,29.93,29.84,15,4,20,0.00
2013-5-31,88.0,80.7,76.6,77.0,75.8,74.0,94,85,67,29.94,29.87,12,4,17,0.10
2013-6-1,90.4,82.5,75.7,78.0,76.1,74.0,93,81,64,29.92,29.86,10,4,18,0.00
2013-6-2,86.2,76.7,69.4,75.0,72.1,68.0,96,86,65,30.01,29.86,8,1,14,0.83
2013-6-3,90.4,79.4,70.6,74.0,71.5,69.0,95,78,57,29.93,29.82,7,1,9,0.00
2013-6-4,97.2,83.0,71.9,77.0,72.6,69.0,92,73,43,29.92,29.81,5,1,7,0.00
2013-6-5,95.9,83.0,74.9,80.0,76.0,73.0,95,81,53,29.89,29.76,8,2,10,0.00
2013-6-6,91.3,77.0,67.1,79.0,73.0,65.0,96,88,66,29.86,29.71,9,1,24,0.70
2013-6-7,86.3,74.2,66.6,72.0,68.5,66.0,97,84,55,29.90,29.82,7,1,10,0.00
2013-6-8,89.4,77.1,67.9,75.0,70.2,63.0,95,80,60,29.92,29.84,9,1,17,0.00
2013-6-9,91.3,76.6,70.2,78.0,72.2,69.0,96,87,63,29.96,29.85,5,1,11,0.34
2013-6-10,93.3,80.9,69.9,79.0,74.2,69.0,97,81,58,29.98,29.93,7,1,11,0.00
2013-6-11,93.8,83.3,74.5,80.0,76.3,73.0,96,81,59,30.05,29.97,6,1,11,0.00
2013-6-12,94.3,83.5,73.7,79.0,76.2,73.0,96,80,59,30.07,29.98,7,1,10,0.00
2013-6-13,95.2,83.5,73.6,79.0,75.8,72.0,96,79,53,30.05,29.89,5,1,9,0.00
2013-6-14,94.6,83.5,72.6,81.0,77.0,70.0,96,82,59,29.96,29.84,7,1,14,0.89
2013-6-15,95.6,82.6,73.1,81.0,75.9,71.0,96,81,59,29.98,29.89,5,1,9,0.05
2013-6-16,94.0,84.0,74.3,78.0,75.4,73.0,95,77,56,30.03,29.93,7,1,13,0.00
2013-6-17,95.0,83.1,72.9,78.0,75.0,71.0,96,78,55,30.00,29.89,7,1,13,0.01
2013-6-18,92.5,82.0,72.8,77.0,74.6,71.0,95,79,55,29.97,29.88,9,1,13,0.45
2013-6-19,87.2,77.9,72.4,78.0,73.6,71.0,96,87,66,30.00,29.92,4,1,8,0.21
2013-6-20,94.9,80.9,73.3,78.0,75.1,71.0,96,84,50,30.08,29.98,6,0,17,0.09
2013-6-21,92.9,80.9,72.8,80.0,75.5,72.0,97,84,62,30.10,30.02,5,1,9,0.04
2013-6-22,94.4,82.6,73.0,77.0,74.8,72.0,96,79,56,30.07,29.95,5,1,10,0.00
2013-6-23,93.0,81.6,73.9,79.0,75.1,72.0,96,82,57,30.03,29.96,9,1,18,0.75
2013-6-24,92.7,83.0,74.6,78.0,75.1,73.0,94,78,60,30.08,30.01,7,2,17,0.01
2013-6-25,94.1,81.7,73.1,79.0,75.4,71.0,96,82,57,30.06,29.96,6,1,11,0.11
2013-6-26,95.3,84.9,75.7,79.0,76.2,74.0,93,76,55,30.02,29.93,7,1,11,0.00
2013-6-27,97.6,83.4,72.6,79.0,75.8,71.0,96,79,54,30.01,29.91,7,1,9,0.00
2013-6-28,96.2,85.2,77.8,80.0,76.9,72.0,95,78,48,29.97,29.78,9,2,11,0.00
2013-6-29,97.6,87.3,79.1,82.0,75.7,70.0,89,70,48,29.81,29.67,10,2,16,0.00
2013-6-30,92.3,83.6,72.8,73.0,66.7,62.0,90,60,38,29.81,29.73,9,1,14,0.00
2013-7-1,87.8,79.3,69.8,70.0,66.1,63.0,83,65,49,29.92,29.81,8,1,11,0.00
2013-7-2,92.6,79.2,67.0,69.0,66.3,64.0,92,67,41,29.99,29.91,9,1,12,0.00
2013-7-3,92.0,81.0,69.0,69.0,65.5,62.0,87,62,38,30.01,29.91,7,2,11,0.00
2013-7-4,92.5,80.3,68.7,72.0,67.9,64.0,94,68,43,29.97,29.89,10,1,10,0.00
2013-7-5,94.4,80.6,70.3,75.0,71.0,68.0,93,74,42,29.96,29.89,9,2,17,0.00
2013-7-6,92.4,79.2,70.6,76.0,72.8,69.0,95,82,54,29.95,29.88,8,3,11,0.00
2013-7-7,90.4,79.6,75.1,79.0,75.1,73.0,95,87,64,30.03,29.92,9,2,15,0.39
2013-7-8,93.3,81.4,74.3,79.0,75.5,73.0,96,84,57,30.11,30.01,11,2,12,0.00
2013-7-9,97.2,83.9,74.6,79.0,75.9,73.0,96,79,50,30.15,30.05,9,2,15,0.00
2013-7-10,95.4,84.1,73.3,78.0,75.4,72.0,95,76,53,30.08,29.95,8,1,13,0.00
2013-7-11,93.8,81.8,75.9,79.0,75.0,71.0,93,81,55,29.99,29.89,6,1,10,0.01
2013-7-12,97.0,82.6,74.6,81.0,75.7,73.0,95,81,54,29.95,29.84,7,1,10,0.06
2013-7-13,96.2,82.6,70.9,76.0,67.8,58.0,94,65,32,29.95,29.85,7,1,10,0.00
2013-7-14,93.1,80.7,71.1,75.0,70.4,67.0,91,72,45,29.95,29.88,5,1,5,0.00
2013-7-15,89.2,80.4,75.1,77.0,73.9,72.0,93,81,60,30.07,29.92,7,2,14,0.05
2013-7-16,87.6,78.6,73.2,76.0,74.0,71.0,94,86,68,30.12,30.03,13,4,18,0.11
2013-7-17,92.5,79.1,71.7,77.0,73.8,70.0,95,85,57,30.18,30.10,9,2,22,0.17
2013-7-18,95.2,80.7,71.4,76.0,72.4,70.0,96,78,50,30.14,29.99,8,1,16,0.00
2013-7-19,90.0,76.7,71.5,76.0,71.8,70.0,94,86,60,30.05,29.93,6,1,13,0.02
2013-7-20,92.6,79.2,70.5,76.0,72.5,69.0,96,81,50,29.98,29.87,13,1,22,0.00
2013-7-21,88.2,79.2,72.2,77.0,74.2,71.0,96,85,68,30.01,29.93,8,2,18,0.67
2013-7-22,93.5,84.0,75.3,81.0,78.0,74.0,95,83,64,30.03,29.96,8,1,14,0.00
2013-7-23,93.6,84.3,77.4,79.0,77.1,76.0,94,80,59,30.04,29.91,6,1,12,0.00
2013-7-24,94.9,83.7,75.3,79.0,76.6,73.0,94,80,56,29.99,29.86,7,1,15,0.00
2013-7-25,95.4,84.5,79.3,79.0,77.3,75.0,92,80,55,30.03,29.93,7,2,11,0.00
2013-7-26,95.6,83.7,74.3,79.0,76.0,73.0,96,79,52,30.05,29.92,9,2,13,0.00
2013-7-27,92.3,83.3,77.6,78.0,76.2,73.0,92,80,61,29.96,29.85,11,2,19,0.00
2013-7-28,90.8,80.0,74.3,79.0,75.5,72.0,94,86,67,29.99,29.89,7,2,9,0.02
2013-7-29,94.7,82.6,72.6,78.0,75.1,71.0,96,80,55,30.09,29.98,6,1,11,0.01
2013-7-30,94.7,81.5,69.9,79.0,73.2,69.0,96,78,47,30.12,30.04,7,1,13,0.00
2013-7-31,96.6,82.6,72.2,79.0,74.7,71.0,96,79,48,30.09,29.95,7,1,12,0.00
2013-8-1,98.6,84.5,75.9,79.0,76.5,74.0,94,79,47,30.02,29.88,5,1,10,0.00
2013-8-2,98.1,85.7,77.1,79.0,76.7,75.0,94,76,50,29.98,29.90,6,1,12,0.00
2013-8-3,97.1,84.6,74.7,78.0,75.8,73.0,95,77,51,30.04,29.96,6,1,10,0.00
2013-8-4,94.8,84.4,75.9,80.0,77.0,74.0,95,79,60,30.07,29.97,5,1,10,0.06
2013-8-5,98.0,85.7,76.5,80.0,76.8,74.0,95,77,47,30.04,29.93,7,1,12,0.00
2013-8-6,98.0,86.0,77.4,80.0,77.4,74.0,94,77,48,29.99,29.89,10,2,15,0.00
2013-8-7,97.9,85.5,77.7,79.0,77.0,72.0,95,77,43,29.96,29.86,9,2,16,0.00
2013-8-8,96.9,84.0,73.7,79.0,75.1,72.0,96,77,48,29.94,29.86,6,1,15,0.00
2013-8-9,98.8,84.4,75.0,79.0,76.0,73.0,94,78,45,29.98,29.87,10,1,17,0.03
2013-8-10,96.3,79.8,75.1,78.0,75.1,72.0,95,86,53,30.03,29.96,11,1,22,0.08
2013-8-11,92.1,82.6,75.3,79.0,75.8,74.0,96,81,59,30.07,30.00,10,2,13,0.00
2013-8-12,90.5,82.3,74.8,79.0,76.5,73.0,95,83,64,30.07,29.97,8,1,11,0.00
2013-8-13,97.7,85.1,75.3,80.0,76.7,74.0,96,78,50,30.02,29.90,8,1,12,0.00
2013-8-14,88.0,78.7,73.9,80.0,75.6,72.0,96,90,70,29.97,29.91,11,1,17,1.15
2013-8-15,88.6,77.6,72.1,77.0,72.7,68.0,96,85,62,30.01,29.89,8,2,10,0.56
2013-8-16,94.0,81.6,71.1,74.0,70.0,67.0,93,70,41,29.98,29.89,6,1,13,0.00
2013-8-17,93.4,80.3,69.1,70.0,66.5,64.0,86,65,40,29.97,29.88,8,2,14,0.00
2013-8-18,92.5,80.8,71.8,73.0,70.5,68.0,93,73,46,30.00,29.93,8,2,14,0.00
2013-8-19,93.3,80.7,70.8,73.0,70.0,66.0,94,73,41,30.03,29.92,7,2,11,0.00
2013-8-20,83.2,76.0,72.9,77.0,72.9,71.0,95,90,79,30.06,29.95,5,1,8,1.02
2013-8-21,93.2,81.3,72.0,79.0,74.5,71.0,96,81,58,30.08,29.98,7,2,11,0.01
2013-8-22,94.7,82.9,73.6,77.0,74.3,72.0,95,77,49,30.06,29.93,10,2,13,0.00
2013-8-23,95.5,84.1,73.8,78.0,74.5,72.0,95,75,49,29.99,29.86,6,2,14,0.00
2013-8-24,91.7,80.9,74.1,76.0,73.4,72.0,93,79,54,30.05,29.94,12,4,17,0.00
2013-8-25,83.7,77.7,73.9,77.0,73.9,72.0,94,88,77,30.11,30.02,10,3,15,0.09
2013-8-26,82.4,75.6,73.1,76.0,73.2,72.0,95,92,80,30.14,30.05,9,2,19,0.75
2013-8-27,93.8,80.4,70.5,75.0,72.0,68.0,96,78,43,30.11,30.00,11,1,12,0.00
2013-8-28,97.8,82.1,70.9,77.0,73.3,70.0,96,77,44,30.07,29.96,3,0,8,0.00
2013-8-29,93.6,82.2,74.2,78.0,75.3,73.0,96,81,56,30.05,29.95,8,1,12,0.00
2013-8-30,95.4,81.8,71.7,77.0,73.5,70.0,95,78,51,30.02,29.90,4,1,9,0.00
2013-8-31,94.5,82.1,71.5,78.0,73.8,70.0,96,78,50,29.96,29.84,6,1,15,0.00
2013-9-1,96.0,82.6,72.3,79.0,74.5,71.0,96,78,50,29.93,29.83,7,1,13,0.00
2013-9-2,92.9,81.9,73.5,79.0,75.9,72.0,96,83,56,29.96,29.84,5,1,11,0.06
2013-9-3,98.2,82.0,73.1,79.0,75.8,69.0,96,83,50,29.97,29.86,10,1,14,0.74
2013-9-4,94.4,81.4,73.1,79.0,75.3,72.0,97,83,58,30.04,29.91,6,1,15,0.00
2013-9-5,96.4,79.5,74.1,78.0,74.7,73.0,95,86,53,30.08,29.99,5,1,14,0.59
2013-9-6,91.2,80.7,73.4,78.0,75.0,72.0,95,84,59,30.07,29.96,6,1,11,0.20
2013-9-7,92.3,79.1,73.4,77.0,73.7,71.0,96,84,57,30.03,29.94,6,1,14,0.00
2013-9-8,95.0,80.4,68.5,77.0,72.1,67.0,96,78,45,29.99,29.89,6,1,9,0.00
2013-9-9,92.5,80.7,71.9,77.0,72.8,69.0,95,79,52,30.00,29.92,6,2,11,0.00
2013-9-10,93.9,81.2,72.8,76.0,72.9,71.0,95,78,50,30.07,29.97,7,2,16,0.00
2013-9-11,94.1,81.4,73.6,76.0,73.3,70.0,93,78,48,30.09,29.98,9,2,13,0.00
2013-9-12,95.6,81.7,72.5,76.0,72.1,67.0,95,76,40,30.03,29.89,8,2,13,0.00
2013-9-13,98.2,82.5,72.3,76.0,72.2,68.0,96,74,39,29.93,29.78,7,1,13,0.00
2013-9-14,90.8,79.6,74.1,75.0,72.6,70.0,90,80,59,29.94,29.84,9,2,16,0.00
2013-9-15,93.8,81.1,72.7,77.0,73.7,71.0,93,79,54,30.01,29.91,8,2,16,0.00
2013-9-16,93.2,81.8,72.8,77.0,73.7,71.0,95,78,48,30.03,29.95,9,2,12,0.00
2013-9-17,96.6,82.0,73.2,77.0,73.9,72.0,95,78,47,30.05,29.92,7,2,16,0.00
2013-9-18,95.3,82.1,74.2,77.0,73.5,70.0,94,77,45,30.00,29.90,10,2,14,0.00
2013-9-19,90.2,79.2,74.4,79.0,75.6,73.0,95,89,65,29.98,29.87,7,2,17,1.74
2013-9-20,79.5,76.7,73.8,78.0,75.5,72.0,97,96,93,29.92,29.73,7,1,14,3.11
2013-9-21,74.6,72.5,70.5,73.0,71.2,69.0,97,96,91,29.78,29.70,8,2,13,2.64
2013-9-22,82.6,73.8,66.2,70.0,62.8,59.0,94,70,50,29.82,29.73,13,4,18,0.00
2013-9-23,88.6,76.5,65.6,77.0,68.9,60.0,91,78,62,29.80,29.73,9,3,11,0.00
2013-9-24,92.2,81.4,72.0,79.0,75.3,70.0,96,83,59,29.83,29.75,6,1,12,0.00
2013-9-25,93.1,77.1,65.2,75.0,65.2,52.0,97,73,25,29.85,29.76,7,1,9,0.00
2013-9-26,95.5,77.7,65.9,74.0,67.8,63.0,97,76,34,29.92,29.81,3,0,6,0.00
2013-9-27,92.2,78.1,68.1,74.0,69.5,66.0,96,77,45,29.98,29.89,6,1,10,0.00
2013-9-28,91.5,79.7,70.3,75.0,71.9,69.0,94,79,51,30.01,29.93,9,2,12,0.00
2013-9-29,85.3,76.3,71.4,74.0,71.5,70.0,95,86,63,29.99,29.90,6,1,15,0.33
2013-9-30,77.0,73.6,71.2,75.0,72.3,70.0,97,95,89,29.91,29.82,6,1,13,1.98
2013-10-1,87.0,77.1,72.2,77.0,73.4,71.0,97,89,66,29.97,29.88,9,2,15,0.01
2013-10-2,90.3,77.9,71.6,77.0,73.1,70.0,97,86,57,30.01,29.91,7,2,11,0.06
2013-10-3,90.7,79.1,72.6,78.0,73.4,71.0,97,84,54,29.97,29.88,9,2,12,0.00
2013-10-4,90.5,79.2,73.4,78.0,74.6,72.0,97,86,61,29.96,29.89,8,2,14,0.25
2013-10-5,91.2,79.1,73.2,78.0,74.8,72.0,96,87,64,29.93,29.83,7,2,10,0.00
2013-10-6,75.9,68.9,56.8,74.0,59.4,48.0,96,74,41,30.02,29.86,10,2,17,0.00
2013-10-7,79.6,65.5,54.9,57.0,52.2,49.0,90,64,45,30.10,29.99,7,1,10,0.00
2013-10-8,79.5,64.7,54.1,60.0,56.0,52.0,94,76,46,30.09,29.99,7,1,9,0.00
2013-10-9,84.2,65.9,52.7,62.0,57.4,52.0,96,77,42,30.09,29.99,4,1,7,0.00
2013-10-10,85.1,69.0,56.6,68.0,62.5,56.0,97,82,53,30.08,29.96,5,1,8,0.01
2013-10-11,88.0,74.2,62.5,74.0,69.1,61.0,97,85,60,29.99,29.90,8,1,11,0.00
2013-10-12,91.2,78.3,69.2,79.0,73.6,68.0,97,87,58,30.10,29.93,9,2,16,0.69
2013-10-13,82.1,73.3,68.6,74.0,70.4,68.0,97,91,75,30.14,30.01,9,2,13,0.01
2013-10-14,86.1,75.5,69.5,75.0,70.7,68.0,96,86,65,30.10,29.97,4,0,7,0.00
2013-10-15,87.4,75.9,68.3,74.0,69.9,67.0,97,83,58,30.01,29.90,6,1,10,0.00
2013-10-16,84.2,74.9,66.6,75.0,70.5,66.0,97,86,68,29.95,29.87,3,0,8,0.00
2013-10-17,71.6,66.6,57.1,68.0,63.3,56.0,96,89,81,30.04,29.93,4,1,9,0.00
2013-10-18,71.4,63.2,54.9,61.0,57.9,54.0,97,84,61,30.05,29.89,12,2,13,0.01
2013-10-19,66.7,61.7,54.6,62.0,58.2,51.0,97,88,77,30.07,29.91,8,1,16,0.80
2013-10-20,75.0,59.5,49.4,59.0,52.5,48.0,94,79,47,30.09,29.95,8,1,9,0.00
2013-10-21,72.3,63.4,54.4,68.0,60.8,53.0,94,91,82,30.04,29.92,6,1,9,0.03
2013-10-22,73.1,64.4,53.5,66.0,61.2,52.0,96,89,73,30.05,29.95,5,1,11,0.00
2013-10-23,79.6,62.0,48.9,57.0,52.6,48.0,97,76,36,30.13,30.04,7,0,7,0.01
2013-10-24,83.4,64.5,49.8,62.0,56.2,49.0,96,78,47,30.21,30.11,5,0,6,0.00
2013-10-25,71.2,61.5,54.2,60.0,51.4,47.0,96,71,49,30.37,30.20,12,3,15,0.00
2013-10-26,79.2,61.3,48.2,62.0,52.9,46.0,95,77,41,30.27,30.11,4,0,7,0.00
2013-10-27,74.5,65.1,58.5,70.0,62.9,57.0,96,92,82,30.11,30.00,11,1,14,0.14
2013-10-28,82.4,69.3,58.6,73.0,65.8,58.0,97,89,70,30.14,30.02,5,0,6,0.04
2013-10-29,81.6,71.7,64.2,72.0,67.1,63.0,97,86,63,30.17,30.08,8,1,13,0.01
2013-10-30,81.2,73.0,67.1,74.0,69.5,66.0,96,89,72,30.11,29.91,13,4,20,0.00
2013-10-31,77.6,70.4,61.8,75.0,68.5,61.0,98,93,88,29.92,29.78,14,4,29,2.27
2013-11-1,80.3,63.8,55.3,64.0,57.9,54.0,98,84,40,29.95,29.83,2,0,6,0.01
2013-11-2,71.4,62.7,55.5,61.0,49.1,38.0,96,65,32,30.19,29.91,8,1,15,0.02
2013-11-3,66.5,55.0,45.5,50.0,45.9,43.0,94,73,47,30.25,30.11,8,1,10,0.00
2013-11-4,75.3,63.5,50.9,62.0,56.3,48.0,90,78,61,30.16,30.07,8,2,11,0.00
2013-11-5,80.1,69.7,61.3,71.0,65.4,60.0,96,87,71,30.11,30.01,9,2,15,0.02
2013-11-6,82.0,70.0,58.1,73.0,67.3,55.0,96,91,72,30.17,30.00,4,1,14,0.57
2013-11-7,66.5,55.9,48.9,54.0,45.8,42.0,90,71,42,30.34,30.18,9,1,16,0.00
2013-11-8,65.0,53.4,45.4,47.0,43.2,40.0,93,71,42,30.37,30.19,12,2,14,0.00
2013-11-9,72.4,58.8,46.9,51.0,47.4,44.0,93,69,37,30.23,30.14,3,0,7,0.00
2013-11-10,75.9,62.5,52.3,60.0,53.6,48.0,86,74,56,30.28,30.18,9,1,9,0.00
2013-11-11,76.5,61.8,52.5,59.0,53.8,50.0,95,77,51,30.25,30.13,2,0,5,0.00
2013-11-12,73.1,56.1,41.3,58.0,48.6,31.0,96,77,57,30.54,30.19,9,1,18,0.00
2013-11-13,57.8,43.5,33.5,33.0,29.4,25.0,78,60,32,30.58,30.42,9,1,14,0.00
2013-11-14,63.0,49.1,34.1,51.0,39.8,30.0,87,72,44,30.41,30.09,2,0,6,0.00
2013-11-15,79.3,63.0,51.8,64.0,57.2,47.0,96,82,56,30.10,29.93,4,0,7,0.00
2013-11-16,77.7,70.8,62.5,72.0,68.4,61.0,97,92,79,29.97,29.85,10,3,16,0.01
2013-11-17,80.7,75.0,72.4,76.0,73.0,71.0,97,93,84,29.94,29.83,11,2,16,0.04
2013-11-18,76.5,70.1,60.5,72.0,55.2,41.0,98,63,34,30.10,29.93,9,2,21,0.00
2013-11-19,65.9,57.5,49.9,44.0,41.6,37.0,77,57,38,30.18,30.05,16,3,17,0.00
2013-11-20,73.9,58.0,43.2,58.0,46.8,37.0,91,68,36,30.10,29.97,6,0,7,0.00
2013-11-21,77.8,67.1,57.3,71.0,65.0,56.0,97,93,79,30.13,30.02,10,1,14,0.06
2013-11-22,73.2,68.4,59.7,72.0,67.1,58.0,97,95,89,30.19,30.09,8,1,12,0.10
2013-11-23,59.9,52.3,44.8,59.0,49.8,40.0,97,91,82,30.37,30.17,14,2,17,0.03
2013-11-24,52.4,44.7,39.3,40.0,31.9,29.0,83,62,42,30.41,30.28,11,3,18,0.00
2013-11-25,41.9,40.4,38.3,40.0,36.5,32.0,96,86,69,30.31,29.95,10,1,13,1.89
2013-11-26,42.4,40.9,39.7,41.0,39.5,38.0,96,94,91,30.20,29.88,9,2,18,0.65
2013-11-27,49.5,40.2,31.0,40.0,33.7,30.0,95,79,52,30.43,30.19,6,0,13,0.00
2013-11-28,48.5,36.7,29.2,35.0,30.8,28.0,95,81,51,30.51,30.39,1,0,4,0.00
2013-11-29,60.5,40.9,26.8,37.0,31.5,26.0,96,74,30,30.53,30.40,7,0,7,0.00
2013-11-30,67.1,47.5,30.7,47.0,39.1,29.0,96,76,45,30.43,30.24,2,0,5,0.00
2013-12-1,78.0,55.3,38.7,58.0,49.3,38.0,97,82,45,30.25,29.96,3,0,4,0.01
2013-12-2,76.0,65.9,60.4,66.0,61.9,58.0,96,88,68,29.97,29.71,7,1,12,0.00
2013-12-3,75.7,68.0,62.8,69.0,65.8,62.0,97,93,78,29.77,29.67,7,1,9,0.00
2013-12-4,77.6,72.2,68.2,73.0,70.2,67.0,97,93,83,29.86,29.74,7,2,14,0.00
2013-12-5,80.2,70.3,53.6,74.0,67.9,53.0,96,92,81,29.96,29.84,12,2,19,0.04
2013-12-6,54.0,45.2,38.9,53.0,43.4,36.0,97,93,88,30.30,29.91,7,0,21,0.06
2013-12-7,38.9,36.7,34.9,36.0,32.3,-99.9,92,88,84,30.37,30.26,8,0,13,0.00
2013-12-8,44.9,39.5,34.8,44.0,38.2,33.0,96,94,91,30.27,30.06,4,0,5,0.76
2013-12-9,46.5,44.4,40.0,45.0,43.3,39.0,96,95,94,30.23,30.05,6,0,10,0.08
2013-12-10,49.6,41.2,37.0,39.0,35.8,34.0,94,82,61,30.42,30.24,11,1,18,0.01
2013-12-11,47.8,42.5,35.1,41.0,37.3,33.0,91,82,74,30.47,30.34,2,0,7,0.00
2013-12-12,54.4,44.0,35.9,40.0,35.2,32.0,89,73,51,30.55,30.35,4,0,10,0.00
2013-12-13,63.8,50.2,39.0,63.0,44.8,32.0,97,82,70,30.35,29.88,6,1,9,0.50
2013-12-14,65.1,57.4,45.4,63.0,53.1,39.0,97,86,70,30.20,29.84,9,2,19,0.04
2013-12-15,53.6,43.6,33.3,39.0,36.1,32.0,95,76,56,30.33,30.20,8,0,13,0.00
2013-12-16,58.3,42.3,29.3,44.0,36.5,28.0,97,83,48,30.36,30.25,3,0,4,0.00
2013-12-17,66.6,47.0,31.7,51.0,41.1,31.0,97,83,43,30.35,30.24,3,0,7,0.00
2013-12-18,67.9,50.2,37.5,55.0,43.5,37.0,97,81,38,30.35,30.17,5,0,10,0.01
2013-12-19,73.3,62.2,47.2,65.0,57.8,46.0,96,86,64,30.17,29.94,12,3,20,0.00
2013-12-20,75.7,70.3,66.2,70.0,67.9,65.0,95,92,83,29.98,29.84,17,5,24,0.00
2013-12-21,73.1,68.2,56.8,71.0,66.7,56.0,97,95,90,29.84,29.61,16,4,20,0.53
2013-12-22,64.1,57.2,42.9,62.0,54.1,38.0,98,89,76,30.26,29.80,10,1,14,0.02
2013-12-23,50.4,42.0,36.4,38.0,33.7,31.0,85,73,50,30.52,30.26,7,0,15,0.00
2013-12-24,53.0,40.2,29.0,38.0,33.1,28.0,95,78,49,30.57,30.35,8,0,10,0.00
2013-12-25,55.9,42.9,33.9,39.0,35.5,32.0,91,77,47,30.42,30.31,2,0,6,0.00
2013-12-26,59.1,46.7,35.4,42.0,37.8,34.0,93,74,43,30.42,30.29,8,0,8,0.00
2013-12-27,52.5,48.5,45.5,41.0,38.3,35.0,79,69,53,30.44,30.30,0,0,6,0.00
2013-12-28,53.4,47.2,37.2,44.0,40.0,36.0,95,76,63,30.29,30.02,1,0,4,0.00
2013-12-29,65.1,47.4,32.5,47.0,39.4,32.0,97,77,40,30.14,30.02,0,0,4,0.00
2013-12-30,49.2,46.6,42.4,45.0,41.8,39.0,90,83,79,30.37,30.12,3,0,9,0.00
2013-12-31,49.2,43.8,40.3,40.0,38.2,37.0,90,81,64,30.42,30.29,5,0,9,0.00
2014-1-1,59.9,51.3,44.2,54.0,48.4,39.0,96,90,74,30.29,30.02,2,0,6,0.01
2014-1-2,56.3,49.1,38.5,56.0,39.4,26.0,97,71,47,30.41,30.01,10,2,19,0.40